Terminal Aerodrome Forecast
Issued by NWS Dodge City, KS

Home | Current Version | Previous Version | Text Only | Print | Product List | Glossary On
Versions: 1 2 3 4 5 6 7 8 9 10 11 12 13 14 15 16 17 18 19 20 21 22 23 24 25 26 27 28 29 30 31 32 33 34 35 36 37 38 39 40 41 42 43 44 45 46 47 48 49 50
516
FTUS43 KDDC 291903 AAA
TAFDDC
TAF AMD
KDDC 291903Z 2919/3018 VRB05KT P6SM VCSH BKN040
     FM292200 12008KT P6SM VCTS BKN040CB
     FM300000 12008KT P6SM VCSH BKN030
     FM300600 10008KT P6SM -SHRA OVC050
     FM301200 12010KT 4SM BR VCSH OVC005
     FM301500 13015G25KT P6SM BKN040=

USA.gov is the U.S. government's official web portal to all federal, state and local government web resources and services.